Upsala, Canada
Current Conditions -  °F | °C
As of 10:00 AM on Saturday 22 Nov 2014 (Local Time) from CYQT Reporting Station
Overcast Overcast  
Wind Chill: 27°   Ceiling: 5000
Heat Index: 34°   Visibility: 12mi
Dew Point: 27°   Wind: 8mph
Humidity: 75%   Direction: 240°WSW
Pressure: 29.63"   Gusts: NA
Location:  49.04°N, 90.47°W
Report Text: CYQT 221600Z 24007KT 12SM OVC050 01/M03 A2963 RMK SC8 SLP045
Loading
Personal Weather Stations






























Interactive Weather Map New forecast layout! Learn more

10-Day Weather Forecast

Advertisements
Track Severe Weather on mobile